Terminal Aerodrome Forecast
Issued by NWS

Home | Current Version | Previous Version | Text Only | Print | Product List | Glossary On
Versions: 1 2 3 4 5 6 7 8 9 10 11 12 13
820
FTAK31 PAJN 191725
TAFASI
TAF
PASI 191725Z 1918/2018 09005KT P6SM VCSH OVC040
      TEMPO 1918/1922 -RA OVC030
     FM192200 07005KT P6SM VCSH OVC040
     FM200900 05003KT P6SM SCT050 BKN070=

USA.gov is the U.S. government's official web portal to all federal, state and local government web resources and services.